Terminal Aerodrome Forecast
Issued by NWS

Home | Current Version | Previous Version | Text Only | Print | Product List | Glossary On
Versions: 1 2 3 4 5 6 7 8 9 10 11 12 13 14 15 16 17 18 19 20 21 22 23 24 25 26 27 28 29 30 31 32 33
000
FTUS41 KOKX 261720
TAFTEB
TAF
KTEB 261720Z 2618/2718 14006KT P6SM FEW030 BKN250
     FM270100 VRB04KT P6SM FEW008 BKN250
     FM270500 VRB03KT 6SM BR BKN006
      TEMPO 2708/2712 3SM BR BKN004
     FM271300 05005KT P6SM SCT006 SCT100=

USA.gov is the U.S. government's official web portal to all federal, state and local government web resources and services.